Tiempo atmosférico en la estación meteorológica de Llerena, Badajoz (655 m.)



Fecha
DESCASC
Temp. máxima en grados centígrados (hora)
DESCASC
Temp. mínima en grados centígrados (hora)
DESCASC
Temp. media en grados centígrados
DESCASC
Racha de viento máxima en m/sg (hora)
DESCASC
Velocidad máxima media en intervalos de 10 minutos(hora)
DESCASC
Precipitaciones diarias en mm
DESCASC
Precipitaciones de 00:00 a 06:00 en mm
DESCASC
Precipitaciones de 06:00 a 12:00 en mm
DESCASC
Precipitaciones de 12:00 a 18:00 en mm
DESCASC
Precipitaciones de 18:00 a 24:00 en mm
DESCASC
05-12-2019 11.8 (14:30) 5.4 (08:50) 8.6 11.39 (15:40) 7.5 (13:30) 0 0 0 0 0
04-12-2019 11.1 (15:10) 5.8 (06:10) 8.5 6.39 (16:10) 3.61 (16:10) 0 0 0 0 0
03-12-2019 12.3 (15:10) 4.9 (00:00) 8.6 8.61 (11:30) 6.11 (11:30) 0 0 0 0 0
02-12-2019 11.1 (14:00) 6.5 (00:00) 8.8 13.89 (14:00) 9.44 (13:50) 3.4 3.2 0.2 0 0
01-12-2019 11.8 (15:50) 7.4 (00:00) 9.6 9.72 (08:50) 6.39 (08:50) 11.6 0 2 1 8.6
30-11-2019 14 (11:40) 9.4 (00:00) 11.7 9.17 (19:10) 6.11 (19:20) 1.4 0 0 0 1.4
29-11-2019 16.8 (13:50) 9.5 (00:00) 13.1 6.94 (00:20) 5.56 (00:20) 0 0 0 0 0
28-11-2019 14.9 (15:10) 9.4 (00:00) 12.1 7.22 (13:30) 5.28 (23:10) 0 0 0 0 0
27-11-2019 14.4 (14:40) 9.4 (00:00) 11.9 10.83 (15:50) 7.22 (04:40) 1 0.8 0.2 0 0
26-11-2019 14.9 (15:10) 10.6 (00:00) 12.8 13.33 (15:40) 8.89 (15:40) 2.2 0 0 0.2 2
25-11-2019 14.9 (16:10) 9.7 (00:00) 12.3 11.67 (04:50) 9.17 (05:20) 2.8 0 2.2 0.6 0
24-11-2019 12.7 (16:30) 4.7 (00:00) 8.7 9.44 (23:50) 7.22 (23:50) 0 0 0 0 0
23-11-2019 11.6 (14:30) 6.4 (00:00) 9 16.94 (01:00) 11.11 (02:30) 2 1.8 0.2 0 0
22-11-2019 13.8 (16:20) 9.1 (00:00) 11.5 22.5 (16:10) 14.72 (16:10) 22 0.2 5.6 16.2 0
21-11-2019 12.4 (16:40) 7.6 (00:00) 10 10.56 (07:40) 7.5 (08:10) 3.4 0 1.2 2.2 0
20-11-2019 8.2 (20:50) 5.7 (00:00) 6.9 12.22 (09:00) 9.17 (08:40) 7.6 0 6.6 0.2 0.8
19-11-2019 12.2 (14:50) 5.3 (00:00) 8.8 6.11 (12:10) 4.72 (12:20) 0 0 0 0 0
18-11-2019 11.7 (15:20) 3.9 (00:00) 7.8 11.94 (01:50) 8.33 (01:50) 2.4 2.4 0 0 0
17-11-2019 11.3 (17:10) 3.7 (00:00) 7.5 13.61 (17:30) 8.61 (08:30) 11.6 0 1 3 7.6
16-11-2019 10.8 (15:50) 0.5 (00:00) 5.7 8.61 (16:10) 5.28 (16:50) 0 0 0 0 0
15-11-2019 9 (16:00) 2 (00:00) 5.5 11.67 (11:00) 8.33 (01:40) 0 0 0 0 0
14-11-2019 9.9 (14:20) 5.4 (00:00) 7.6 18.89 (15:50) 12.22 (15:40) 1.6 0 1.6 0 0
13-11-2019 18 (15:30) 9.3 (00:00) 13.7 12.78 (05:20) 8.89 (05:50) 0.8 0 0.8 0 0
12-11-2019 14 (15:40) 6 (00:00) 10 11.39 (23:50) 7.22 (14:00) 0.2 0.2 0 0 0
11-11-2019 14.8 (16:10) 7.8 (01:10) 11.3 9.72 (15:40) 6.39 (15:40) 0.8 0.8 0 0 0
10-11-2019 12.4 (13:40) 6.7 (00:00) 9.5 15.28 (13:40) 9.72 (13:40) 0.6 0 0 0.6 0
09-11-2019 14.5 (14:50) 3.6 (00:00) 9 10.83 (21:30) 7.22 (20:30) 0 0 0 0 0
08-11-2019 12.5 (15:40) 5.1 (00:00) 8.8 10.83 (15:10) 7.22 (15:10) 0 0 0 0 0
07-11-2019 13.8 (15:40) 7.1 (00:00) 10.5 12.78 (16:40) 8.89 (17:10) 2.2 0.4 1.8 0 0
06-11-2019 15.7 (14:40) 6.2 (00:00) 10.9 11.11 (13:20) 7.22 (12:30) 0.2 0 0.2 0 0

Gráficas

Temp. máximas Temp. mínimas Temp. medias Precipitaciones Rachas de viento máximas Velocidades máximas media en intervalos de 10 minutos

Datos horarios

Fecha y hora oficial Temperatura (ºC) Velocidad del viento (km/h) Dirección del viento Racha (km/h) Dirección de racha Precipitación (mm) Presión (hPa) Tendencia (hPa) Humedad (%)
2019-12-05 23:00:00 7.1 10 Este 18 Este 0 942.5 1.7 90
2019-12-05 22:00:00 7.6 14 Este 18 Este 0 942.1 1.8 88
2019-12-05 21:00:00 7.7 10 Este 21 Este 0 941.4 1.3 85
2019-12-05 20:00:00 9.3 16 Este 26 Nordeste 0 940.8 1.1 80
2019-12-05 19:00:00 10.1 16 Nordeste 28 Nordeste 0 940.3 1.1 74
2019-12-05 18:00:00 10.3 18 Nordeste 33 Nordeste 0 940.1 1.1 71
2019-12-05 17:00:00 10.5 19 Nordeste 37 Nordeste 0 939.7 0.4 72
2019-12-05 16:00:00 10.8 26 Este 41 Nordeste 0 939.2 -0.5 68
2019-12-05 15:00:00 11.2 24 Este 38 Nordeste 0 939 -0.8 67
2019-12-05 14:00:00 11.2 25 Nordeste 40 Este 0 939.3 -0.3 67
2019-12-05 13:00:00 11.2 24 Nordeste 41 Este 0 939.7 0.5 68
2019-12-05 12:00:00 10.6 22 Nordeste 37 Nordeste 0 939.8 1.4 73
2019-12-05 11:00:00 9.4 19 Nordeste 31 Nordeste 0 939.6 1.9 80
2019-12-05 10:00:00 6.8 6 Nordeste 12 Este 0 939.2 2 96
2019-12-05 09:00:00 5.4 7 Nordeste 11 Nordeste 0 938.4 1.5 95
2019-12-05 08:00:00 5.5 5 Nordeste 11 Nordeste 0 937.7 1.1 95
2019-12-05 07:00:00 6 5 Este 10 Nordeste 0 937.2 0.7 95
2019-12-05 06:00:00 6.6 5 Norte 12 Norte 0 936.9 0.6 95
2019-12-05 05:00:00 7.2 4 Norte 12 Norte 0 936.6 0.6 94
2019-12-05 04:00:00 7.1 4 Nordeste 10 Norte 0 936.5 0.5 93
2019-12-05 03:00:00 7.6 5 Norte 10 Nordeste 0 936.3 0.7 92
2019-12-05 02:00:00 7.8 3 Sur 8 Norte 0 936 0.6 89
2019-12-05 01:00:00 7.8 3 Norte 11 Norte 0 936 0.9 89
2019-12-05 00:00:00 7.8 6 Norte 11 Nordeste 0 935.6 0.7 89
2019-12-04 23:00:00 7.9 4 Norte 10 Norte 0 935.4 1 88
2019-12-04 22:00:00 7.9 2 Nordeste 6 Norte 0 935.1 1.1 86
2019-12-04 21:00:00 7.7 2 Norte 7 Nordeste 0 934.9 1.2 86
2019-12-04 20:00:00 7.3 3 Sur 12 Norte 0 934.4 1.2 86
2019-12-04 19:00:00 7.9 4 Norte 9 Norte 0 934 1 85
2019-12-04 18:00:00 8.8 4 Norte 15 Norte 0 933.7 0.8 81
2019-12-04 17:00:00 9.4 8 Norte 23 Norte 0 933.2 -0.2 81
2019-12-04 16:00:00 10.2 11 Norte 21 Norte 0 933 -0.7 78
2019-12-04 15:00:00 10.8 10 Norte 15 Norte 0 932.9 -1 72
2019-12-04 14:00:00 10 8 Norte 16 Norte 0 933.4 -1 78
2019-12-04 13:00:00 10.3 8 Sudoeste 15 Oeste 0 933.7 -0.6 74
2019-12-04 12:00:00 10.2 12 Oeste 17 Oeste 0 933.9 -0.2 80
2019-12-04 11:00:00 8.3 2 Sudeste 11 Nordeste 0 934.4 0.4 89
2019-12-04 10:00:00 6.7 5 Sudeste 10 Este 0 934.3 0.4 92
2019-12-04 09:00:00 6.3 6 Este 9 Nordeste 0 934.1 0.5 93
2019-12-04 08:00:00 6.2 3 Sudeste 6 Nordeste 0 934 -0.4 94
2019-12-04 07:00:00 5.9 3 Noroeste 7 Este 0 933.9 -0.9 93
2019-12-04 06:00:00 6 5 Este 9 Este 0 933.6 -1.7 93
2019-12-04 05:00:00 6.5 5 Este 7 Este 0 934.4 -1.2 92
2019-12-04 04:00:00 6.9 4 Nordeste 7 Este 0 934.8 -1.4 92
2019-12-04 03:00:00 7 6 Nordeste 9 Sudeste 0 935.3 -1.4 91
2019-12-04 02:00:00 6.4 8 Sudeste 13 Este 0 935.6 -1.1 90
2019-12-04 01:00:00 7.2 8 Este 12 Sudeste 0 936.2 -0.2 88
2019-12-04 00:00:00 7.6 7 Este 12 Este 0 936.7 0.3 88
2019-12-03 23:00:00 8.1 7 Este 12 Este 0 936.7 0.6 85
2019-12-03 22:00:00 8 9 Este 13 Este 0 936.4 0.4 86
2019-12-03 21:00:00 7.9 7 Este 12 Este 0 936.4 0.5 86
2019-12-03 20:00:00 8.1 7 Este 14 Este 0 936.1 0.7 84
2019-12-03 19:00:00 9.5 10 Nordeste 20 Nordeste 0 936 0.6 79
2019-12-03 18:00:00 10.4 13 Este 24 Nordeste 0 935.9 0.6 76
2019-12-03 17:00:00 11.3 13 Nordeste 26 Nordeste 0 935.4 -0.5 72
2019-12-03 16:00:00 11.7 13 Nordeste 28 Norte 0 935.4 -1 71
2019-12-03 15:00:00 12.1 14 Nordeste 24 Este 0 935.3 -1.5 68
2019-12-03 14:00:00 10.5 18 Nordeste 28 Nordeste 0 935.9 -1.4 74
2019-12-03 13:00:00 10.3 15 Nordeste 30 Nordeste 0 936.4 -0.9 76
2019-12-03 12:00:00 9.4 22 Este 31 Este 0 936.8 -0.4 81
2019-12-03 11:00:00 8 12 Este 22 Este 0 937.3 0 86
2019-12-03 10:00:00 6.4 13 Este 18 Este 0 937.3 0.4 87
2019-12-03 09:00:00 5.4 8 Nordeste 12 Nordeste 0 937.2 0.4 89
2019-12-03 08:00:00 5.1 2 Este 14 Norte 0 937.3 0.2 89
2019-12-03 07:00:00 5.7 5 Nordeste 13 Este 0 936.9 -0.7 87
2019-12-03 06:00:00 6 7 Este 16 Nordeste 0 936.8 -1 87
2019-12-03 05:00:00 6.2 8 Nordeste 12 Nordeste 0 937.1 -0.8 89
2019-12-03 04:00:00 6.5 8 Este 17 Este 0 937.6 -0.6 88
2019-12-03 03:00:00 6.6 9 Este 24 Este 0 937.8 -0.5 89
2019-12-03 02:00:00 7.1 18 Este 24 Este 0 937.9 -0.4 88
2019-12-03 01:00:00 7.2 17 Este 24 Este 0 938.2 0.1 88
2019-12-03 00:00:00 7.3 14 Este 29 Este 0 938.3 0.4 87
2019-12-02 23:00:00 7.6 14 Este 20 Este 0 938.3 1.1 87
2019-12-02 22:00:00 8.1 10 Este 22 Este 0 938.1 1.7 88
2019-12-02 21:00:00 8.4 16 Este 23 Este 0 937.9 1.9 87
2019-12-02 20:00:00 8.3 17 Este 28 Este 0 937.2 1.8 86
2019-12-02 19:00:00 8.1 14 Nordeste 34 Nordeste 0 936.4 1.4 86
2019-12-02 18:00:00 8.9 19 Nordeste 42 Nordeste 0 936 1.3 83
2019-12-02 17:00:00 10 24 Nordeste 48 Este 0 935.4 0.6 78
2019-12-02 16:00:00 10.5 31 Nordeste 49 Nordeste 0 935 -0.5 72
2019-12-02 15:00:00 10.6 27 Nordeste 50 Este 0 934.7 -1.2 74
2019-12-02 14:00:00 11 33 Este 50 Nordeste 0 934.8 -0.7 74
2019-12-02 13:00:00 9.7 27 Este 41 Este 0 935.5 0.6 83
2019-12-02 12:00:00 8.9 23 Este 41 Este 0 935.9 1.6 88
2019-12-02 11:00:00 7.8 27 Nordeste 42 Este 0 935.5 1.6 91
2019-12-02 10:00:00 7.2 18 Nordeste 31 Nordeste 0 934.9 1.6 95
2019-12-02 09:00:00 6.7 20 Este 30 Este 0.2 934.3 1.2 95
2019-12-02 08:00:00 6.7 15 Nordeste 27 Nordeste 0 933.9 0.7 95
2019-12-02 07:00:00 6.5 14 Nordeste 24 Nordeste 0 933.3 -0.1 95
2019-12-02 06:00:00 6.9 13 Nordeste 23 Nordeste 0.2 933.1 -0.1 95
2019-12-02 05:00:00 7.1 13 Este 20 Este 0.6 933.2 -0.1 95
2019-12-02 04:00:00 6.6 15 Este 26 Este 0.4 933.4 -0.1 95
2019-12-02 03:00:00 7.6 12 Nordeste 22 Nordeste 0 933.2 -0.6 95
2019-12-02 02:00:00 7.7 10 Nordeste 21 Este 0.6 933.3 -0.4 95
2019-12-02 01:00:00 7.7 14 Este 21 Este 1.4 933.5 -0.2 94
2019-12-02 00:00:00 8 5 Este 9 Este 0 933.8 0 92
2019-12-01 23:00:00 8.1 2 Este 9 Sudeste 0 933.7 -0.2 93
2019-12-01 22:00:00 8.5 0 Calma 7 Sudoeste 0.2 933.7 -0.1 92
2019-12-01 21:00:00 8.5 2 Sudeste 10 Nordeste 5.2 933.8 -0.1 92
2019-12-01 20:00:00 8.9 4 Sudeste 10 Sudoeste 2.4 933.9 0 91
2019-12-01 19:00:00 9 8 Sudoeste 17 Oeste 0.8 933.8 -0.3 91
2019-12-01 18:00:00 9.4 17 Oeste 28 Oeste 0.8 933.9 -0.7 85
2019-12-01 17:00:00 10.7 15 Oeste 30 Sudoeste 0 933.9 -1.5 78
2019-12-01 16:00:00 11.3 18 Sudoeste 30 Sudoeste 0 934.1 -2 76
2019-12-01 15:00:00 11.1 21 Sudoeste 30 Sudoeste 0 934.6 -2.6 81
2019-12-01 14:00:00 10.2 21 Sudoeste 30 Sudoeste 0 935.4 -2.4 87
2019-12-01 13:00:00 9.7 22 Sudoeste 32 Sudoeste 0.2 936.1 -2 91
2019-12-01 12:00:00 9.7 19 Sudoeste 33 Sudoeste 0.2 937.2 -1 91
2019-12-01 11:00:00 8.9 17 Sudoeste 28 Sudoeste 0 937.8 -0.3 94
2019-12-01 10:00:00 8.2 15 Sudoeste 25 Sudoeste 0.6 938.1 -0.4 93
2019-12-01 09:00:00 7.9 15 Sudoeste 35 Sudoeste 1.2 938.2 -0.4 93
2019-12-01 08:00:00 8.1 15 Sudoeste 22 Sur 0 938.1 -1.1 89
2019-12-01 07:00:00 8 14 Sudoeste 24 Sudoeste 0 938.5 -1.3 90
2019-12-01 06:00:00 7.9 14 Sudoeste 23 Sudoeste 0 938.6 -1.8 93
2019-12-01 05:00:00 7.4 12 Sudoeste 19 Sudoeste 0 939.2 -1.8 94
2019-12-01 04:00:00 7.7 10 Oeste 16 Oeste 0 939.8 -1.8 93
2019-12-01 03:00:00 8.1 12 Oeste 20 Oeste 0 940.4 -1.6 92
2019-12-01 02:00:00 8.9 14 Oeste 26 Oeste 0 941 -1.4 93
2019-12-01 01:00:00 9.2 12 Oeste 23 Oeste 0 941.6 -1.3 93
2019-12-01 00:00:00 9.8 16 Oeste 30 Oeste 0 942 -0.6 93
2019-11-30 23:00:00 10.4 18 Oeste 31 Oeste 0.4 942.4 -0.4 93
2019-11-30 22:00:00 10.8 -- -- -- -- 1 942.9 0 91
2019-11-30 21:00:00 12.1 19 Sudoeste 27 Sudoeste 0 942.6 -0.5 86
2019-11-30 20:00:00 12.5 18 Sudoeste 33 Sudoeste 0 942.8 -0.7 82
2019-11-30 19:00:00 12.7 19 Sudoeste 30 Sudoeste 0 942.9 -0.7 80
2019-11-30 18:00:00 12.7 17 Sudoeste 26 Sudoeste 0 943.1 -1.2 80
2019-11-30 17:00:00 13.1 13 Oeste 25 Oeste 0 943.5 -1.6 76
2019-11-30 16:00:00 13.3 18 Sudoeste 27 Oeste 0 943.6 -2.4 74
2019-11-30 15:00:00 13.2 19 Oeste 31 Oeste 0 944.3 -2.2 75
2019-11-30 14:00:00 13.2 19 Oeste 27 Oeste 0 945.1 -1.6 78
2019-11-30 13:00:00 13.1 14 Oeste 20 Oeste 0 946 -0.5 82
2019-11-30 12:00:00 13.7 9 Oeste 15 Sudoeste 0 946.5 0.3 81
2019-11-30 11:00:00 13.5 8 Oeste 12 Oeste 0 946.7 0.6 84
2019-11-30 10:00:00 11.9 8 Oeste 10 Sudoeste 0 946.5 0.5 89
2019-11-30 09:00:00 10 6 Sudoeste 10 Oeste 0 946.2 -0.2 93
2019-11-30 08:00:00 9.5 4 Sudoeste 5 Sudoeste 0 946.1 -0.3 93
2019-11-30 07:00:00 10 3 Sur 7 Sur 0 946 -0.5 93
2019-11-30 06:00:00 10.2 0 Calma 4 Norte 0 946.4 0.1 93
2019-11-30 05:00:00 10.1 3 Norte 6 Sudeste 0 946.4 -0.4 91
2019-11-30 04:00:00 9.6 4 Sudeste 6 Sudeste 0 946.5 -0.7 88
2019-11-30 03:00:00 10.3 3 Sur 5 Oeste 0 946.3 -0.5 87
2019-11-30 02:00:00 10.5 3 Oeste 12 Noroeste 0 946.8 0 87
2019-11-30 01:00:00 10.4 6 Sudoeste 12 Oeste 0 947.2 0.4 86
2019-11-30 00:00:00 10.3 9 Oeste 10 Oeste 0 946.8 0.2 86
2019-11-29 23:00:00 11 6 Sudoeste 8 Sudoeste 0 946.8 0.1 81
2019-11-29 22:00:00 11.3 5 Sur 9 Sudeste 0 946.8 0 82
2019-11-29 21:00:00 11.7 7 Sudeste 8 Sudeste 0 946.6 0.1 83
2019-11-29 20:00:00 12.5 4 Sudoeste 6 Sudoeste 0 946.7 0.3 80
2019-11-29 19:00:00 13.6 3 Oeste 6 Oeste 0 946.8 0.4 76
2019-11-29 18:00:00 14.4 3 Oeste 8 Noroeste 0 946.5 0.1 74
2019-11-29 17:00:00 15 6 Norte 14 Noroeste 0 946.4 -0.4 68
2019-11-29 16:00:00 15.1 11 Noroeste 19 Noroeste 0 946.4 -0.8 66
2019-11-29 15:00:00 16.1 9 Noroeste 19 Noroeste 0 946.4 -1.1 65
2019-11-29 14:00:00 15.7 10 Noroeste 24 Oeste 0 946.8 -0.7 67
2019-11-29 13:00:00 16.3 9 Noroeste 19 Oeste 0 947.2 0.4 69
2019-11-29 12:00:00 14.1 5 Noroeste 18 Noroeste 0 947.5 1.2 70
2019-11-29 11:00:00 13.5 10 Noroeste 14 Oeste 0 947.5 1.5 79
2019-11-29 10:00:00 13.4 9 Oeste 13 Oeste 0 946.8 1.2 80
2019-11-29 09:00:00 11.3 7 Sudoeste 14 Oeste 0 946.3 1 86
2019-11-29 08:00:00 10.2 9 Sudoeste 14 Sudoeste 0 946 0.8 88
2019-11-29 07:00:00 10 10 Sudoeste 16 Sudoeste 0 945.6 0.5 89
2019-11-29 06:00:00 9.7 13 Sudoeste 22 Sudoeste 0 945.3 0.5 91
2019-11-29 05:00:00 9.6 14 Sudoeste 20 Sudoeste 0 945.2 0.5 93
2019-11-29 04:00:00 9.9 11 Sudoeste 21 Sudoeste 0 945.1 0.4 91
2019-11-29 03:00:00 10.3 15 Sudoeste 20 Sudoeste 0 944.8 0 90
2019-11-29 02:00:00 10.6 15 Sudoeste 25 Sudoeste 0 944.7 -0.2 89
2019-11-29 01:00:00 10.8 17 Sudoeste 25 Sudoeste 0 944.7 0.2 89
2019-11-29 00:00:00 11 19 Sudoeste 26 Sudoeste 0 944.8 0.6 86
2019-11-28 23:00:00 11.3 18 Sudoeste 24 Sudoeste 0 944.9 1 84
2019-11-28 22:00:00 11.4 14 Sudoeste 21 Sudoeste 0 944.5 0.8 81
2019-11-28 21:00:00 12.2 11 Sudoeste 17 Sudoeste 0 944.2 0.7 75
2019-11-28 20:00:00 12.8 11 Sudoeste 18 Sudoeste 0 943.9 0.6 75
2019-11-28 19:00:00 12.7 7 Sudoeste 14 Oeste 0 943.7 0.6 80
2019-11-28 18:00:00 13.1 13 Oeste 22 Noroeste 0 943.5 0.4 74
2019-11-28 17:00:00 14 15 Oeste 23 Oeste 0 943.3 -0.3 73
2019-11-28 16:00:00 14.4 14 Oeste 22 Oeste 0 943.1 -0.9 72
2019-11-28 15:00:00 14.8 13 Oeste 22 Oeste 0 943.1 -1.4 67
2019-11-28 14:00:00 14 9 Sudoeste 26 Oeste 0 943.6 -1 71
2019-11-28 13:00:00 14.4 11 Sudoeste 18 Sur 0 944 -0.2 72
2019-11-28 12:00:00 13.7 12 Sur 19 Sudoeste 0 944.5 0.6 76
2019-11-28 11:00:00 11.6 13 Sudoeste 17 Sudoeste 0 944.6 1.2 83
2019-11-28 10:00:00 11.1 9 Oeste 14 Sudoeste 0 944.2 1.3 85
2019-11-28 09:00:00 10.5 6 Oeste 18 Oeste 0 943.9 1.4 86
2019-11-28 08:00:00 10.5 8 Sudoeste 13 Sudoeste 0 943.4 1 83
2019-11-28 07:00:00 10.5 10 Sudoeste 19 Sudoeste 0 942.9 0.7 83
2019-11-28 06:00:00 10.2 10 Sudoeste 13 Sudoeste 0 942.5 0.5 86
2019-11-28 05:00:00 10.3 5 Oeste 11 Oeste 0 942.4 0.5 86
2019-11-28 04:00:00 10.2 7 Oeste 12 Oeste 0 942.2 -0.3 88
2019-11-28 03:00:00 10.1 8 Sudoeste 21 Oeste 0 942 -0.5 87
2019-11-28 02:00:00 10 15 Sudoeste 20 Sudoeste 0 941.9 -0.6 87
2019-11-28 01:00:00 9.8 11 Oeste 17 Oeste 0 942.5 0.4 88
2019-11-28 00:00:00 9.4 13 Sudoeste 17 Oeste 0 942.5 0.7 88
2019-11-27 23:00:00 9.7 12 Sudoeste 19 Oeste 0 942.5 1 87
2019-11-27 22:00:00 9.9 12 Sudoeste 18 Sudoeste 0 942.1 1.3 86
2019-11-27 21:00:00 10.2 11 Sudoeste 15 Sudoeste 0 941.8 1.3 83
2019-11-27 20:00:00 10.3 12 Oeste 16 Oeste 0 941.5 1.4 80
2019-11-27 19:00:00 10.8 10 Sudoeste 18 Oeste 0 940.8 0.6 78
2019-11-27 18:00:00 12.1 14 Oeste 28 Oeste 0 940.5 0.3 73
2019-11-27 17:00:00 12.8 18 Oeste 33 Oeste 0 940.1 -0.4 71
2019-11-27 16:00:00 13.7 18 Oeste 39 Oeste 0 940.2 -0.9 66
2019-11-27 15:00:00 13.6 23 Oeste 34 Oeste 0 940.2 -1.4 70
2019-11-27 14:00:00 13.4 20 Oeste 34 Oeste 0 940.5 -0.8 72
2019-11-27 06:00:00 10.1 16 Oeste 28 Oeste 0 938.9 0.4 93
2019-11-27 05:00:00 11 22 Oeste 37 Oeste 0.4 938.7 0 93
2019-11-27 04:00:00 11.6 19 Oeste 33 Sudoeste 0.4 938.6 -0.3 94
2019-11-27 03:00:00 11.2 18 Sudoeste 33 Sudoeste 0 938.5 -0.8 92
2019-11-27 02:00:00 11 19 Sudoeste 29 Sudoeste 0 938.7 -0.3 90
2019-11-27 01:00:00 11.6 19 Sudoeste 27 Sudoeste 0 938.9 -0.1 92
2019-11-27 00:00:00 12.1 19 Oeste 29 Oeste 0 939.3 0.8 90
2019-11-26 23:00:00 12.3 20 Oeste 40 Sudoeste 0 939 0.8 91
2019-11-26 22:00:00 13.2 23 Sudoeste 41 Sudoeste 0.8 939 0.8 93
2019-11-26 21:00:00 13.1 16 Sudoeste 34 Sudoeste 0.4 938.5 0.2 93
2019-11-26 20:00:00 13.3 22 Sudoeste 37 Sudoeste 0.8 938.2 0.2 92
2019-11-26 19:00:00 13.9 23 Sudoeste 37 Sudoeste 0 938.2 0.2 88
2019-11-26 18:00:00 13.9 17 Sudoeste 36 Sudoeste 0 938.3 -0.3 88
2019-11-26 17:00:00 14.1 22 Sudoeste 38 Sudoeste 0 938 -1.5 85
2019-11-26 16:00:00 14.4 31 Sudoeste 48 Sudoeste 0 938 -2.4 83
2019-11-26 15:00:00 14.8 26 Sudoeste 42 Sudoeste 0 938.6 -2.5 86
2019-11-26 14:00:00 13.6 23 Sudoeste 36 Sur 0 939.5 -1.7 94
2019-11-26 13:00:00 13.2 16 Sudoeste 26 Sur 0.2 940.4 -0.7 95
2019-11-26 12:00:00 13 18 Sudoeste 30 Sudoeste 0 941.1 0 95
2019-11-26 11:00:00 13 19 Sur 31 Sur 0 941.2 0.2 95
2019-11-26 10:00:00 12.5 23 Sur 35 Sudoeste 0 941.1 0.2 94
2019-11-26 09:00:00 12.3 25 Sur 34 Sur 0 941.1 0.1 93
2019-11-26 08:00:00 11.9 23 Sudoeste 31 Sur 0 941 -0.5 93
2019-11-26 07:00:00 11.9 18 Sudoeste 27 Sudoeste 0 940.9 -0.8 90
2019-11-26 06:00:00 12.2 20 Sudoeste 31 Sudoeste 0 941 -1 87
2019-11-26 05:00:00 11.8 14 Sudoeste 23 Sudoeste 0 941.5 -0.9 86
2019-11-26 04:00:00 11.6 9 Sudoeste 14 Sudoeste 0 941.7 -1.5 89
2019-11-26 03:00:00 11.1 10 Sudoeste 14 Sudoeste 0 942 -1 94
2019-11-26 02:00:00 10.8 8 Sudoeste 18 Oeste 0 942.4 -0.8 94
2019-11-26 01:00:00 11.1 12 Sudoeste 15 Sudoeste 0 943.2 0.2 93
2019-11-26 00:00:00 11.7 10 Sudoeste 15 Sudoeste 0 943 0.2 92
2019-11-25 23:00:00 11.7 9 Oeste 17 Oeste 0 943.2 0.6 93
2019-11-25 22:00:00 12 13 Oeste 17 Sudoeste 0 943 0.6 92
2019-11-25 21:00:00 12.2 9 Sudoeste 14 Oeste 0 942.8 0.5 92
2019-11-25 20:00:00 12.6 13 Oeste 17 Oeste 0 942.6 0.8 91
2019-11-25 19:00:00 13.6 12 Oeste 18 Sudoeste 0 942.4 0.5 88
2019-11-25 18:00:00 13.8 11 Oeste 25 Oeste 0 942.3 0.5 86
2019-11-25 17:00:00 14.2 18 Oeste 29 Oeste 0 941.8 0.2 85
2019-11-25 16:00:00 14.7 19 Oeste 32 Oeste 0 941.9 -0.3 87
2019-11-25 15:00:00 14.2 17 Oeste 32 Oeste 0.2 941.8 -0.7 92
2019-11-25 14:00:00 14.3 23 Oeste 38 Oeste 0 941.6 -1 93
2019-11-25 13:00:00 13.5 16 Oeste 31 Sudoeste 0.4 942.2 0 95
2019-11-25 12:00:00 13.2 23 Sudoeste 34 Sudoeste 0 942.5 0.8 94
2019-11-25 11:00:00 12.6 18 Sudoeste 34 Sur 0.2 942.6 1.3 93
2019-11-25 10:00:00 12.1 20 Sudoeste 30 Sudoeste 0.6 942.2 1 93
2019-11-25 09:00:00 12.1 22 Sudoeste 37 Sudoeste 0.4 941.7 0.8 93
2019-11-25 08:00:00 11.5 24 Sudoeste 34 Sudoeste 0.4 941.3 0.9 94
2019-11-25 07:00:00 11.2 23 Sudoeste 36 Sudoeste 0.6 941.2 0.1 94
2019-11-25 06:00:00 11 26 Sudoeste 42 Sudoeste 0 940.9 -0.4 93
2019-11-25 05:00:00 11 30 Sudoeste 42 Sudoeste 0 940.4 -1.1 91
2019-11-25 04:00:00 11.2 24 Sudoeste 35 Sudoeste 0 941.1 -0.8 90
2019-11-25 03:00:00 10.5 30 Sudoeste 42 Sudoeste 0 941.3 -0.9 92
2019-11-25 02:00:00 10.1 27 Sudoeste 40 Sudoeste 0 941.5 -1.2 90
2019-11-25 01:00:00 9.8 27 Sudoeste 41 Sur 0 941.9 -0.8 88
2019-11-25 00:00:00 9.8 25 Sudoeste 34 Sudoeste 0 942.2 -0.4 86
2019-11-24 23:00:00 9.9 19 Sudoeste 31 Sur 0 942.7 0.2 82
2019-11-24 22:00:00 10 20 Sudoeste 31 Sudoeste 0 942.7 0.6 83
2019-11-24 21:00:00 9.4 14 Sudoeste 18 Sudoeste 0 942.6 0.5 84
2019-11-24 20:00:00 9.8 8 Oeste 16 Oeste 0 942.5 0.6 80
2019-11-24 19:00:00 10.8 12 Oeste 17 Oeste 0 942.1 0.5 76
2019-11-24 18:00:00 11.2 10 Oeste 25 Oeste 0 942.1 0.6 73
2019-11-24 17:00:00 11.8 17 Noroeste 30 Oeste 0 941.9 -0.1 69
2019-11-24 16:00:00 12.5 23 Oeste 31 Oeste 0 941.6 -0.8 67
2019-11-24 15:00:00 12.1 20 Noroeste 28 Oeste 0 941.5 -1.5 70
2019-11-24 14:00:00 12.4 17 Oeste 27 Oeste 0 942 -0.8 71
2019-11-24 13:00:00 11.5 14 Oeste 23 Oeste 0 942.4 0.1 75
2019-11-24 12:00:00 9.6 12 Oeste 18 Oeste 0 943 1.1 85
2019-11-24 11:00:00 8.5 12 Oeste 18 Oeste 0 942.8 1.2 90
2019-11-24 10:00:00 7.4 10 Oeste 15 Oeste 0 942.3 1.4 94
2019-11-24 09:00:00 5.5 8 Sudoeste 15 Oeste 0 941.9 1.6 95
2019-11-24 08:00:00 4.9 12 Oeste 19 Sudoeste 0 941.6 1.8 94
2019-11-24 07:00:00 5.4 10 Sudoeste 16 Oeste 0 940.9 1 89
2019-11-24 06:00:00 5.3 10 Oeste 17 Oeste 0 940.3 0.9 89
2019-11-24 05:00:00 5.3 11 Oeste 15 Oeste 0 939.8 0.1 89
2019-11-24 04:00:00 5.6 7 Oeste 24 Noroeste 0 939.9 0.2 87
2019-11-24 03:00:00 6.6 19 Noroeste 31 Noroeste 0 939.4 -0.3 83
2019-11-24 02:00:00 6.3 20 Noroeste 29 Noroeste 0 939.7 0.1 87
2019-11-24 01:00:00 6.2 16 Oeste 27 Oeste 0 939.7 0.2 87
2019-11-24 00:00:00 6.5 19 Oeste 27 Oeste 0 939.7 0.8 85
2019-11-23 23:00:00 6.6 17 Oeste 24 Oeste 0 939.6 1.5 86
2019-11-23 22:00:00 7 18 Oeste 23 Oeste 0 939.5 2.1 85
2019-11-23 21:00:00 7.6 18 Oeste 29 Noroeste 0 938.9 2.3 83
2019-11-23 20:00:00 7.9 17 Oeste 29 Oeste 0 938.1 2.7 81
2019-11-23 19:00:00 8.3 17 Noroeste 24 Noroeste 0 937.4 2.4 79
2019-11-23 18:00:00 9.6 17 Noroeste 35 Noroeste 0 936.6 1.8 71
2019-11-23 17:00:00 10.7 25 Noroeste 39 Oeste 0 935.4 0.9 67
2019-11-23 16:00:00 11.5 26 Noroeste 44 Noroeste 0 935 0.7 64
2019-11-23 15:00:00 10.5 29 Noroeste 48 Noroeste 0 934.8 0.5 66
2019-11-23 14:00:00 11 34 Noroeste 50 Noroeste 0 934.5 1.2 69
2019-11-23 13:00:00 10.4 30 Noroeste 51 Noroeste 0 934.3 1.9 71
2019-11-23 12:00:00 9.9 34 Noroeste 51 Oeste 0 934.3 3 72
2019-11-23 11:00:00 9 31 Noroeste 49 Noroeste 0 933.3 3.3 78
2019-11-23 10:00:00 8.2 23 Oeste 39 Noroeste 0 932.4 3.4 86
2019-11-23 09:00:00 7.1 24 Oeste 38 Oeste 0 931.3 3 90
2019-11-23 08:00:00 7.1 23 Oeste 32 Oeste 0 930 1.8 91
2019-11-23 07:00:00 7.2 19 Oeste 36 Oeste 0.2 929 1.4 90
2019-11-23 06:00:00 7.7 26 Oeste 37 Oeste 0.2 928.3 1.8 91
2019-11-23 05:00:00 7.7 24 Oeste 43 Noroeste 0 928.2 1.9 90
2019-11-23 04:00:00 8 27 Oeste 55 Noroeste 1.4 927.6 1.7 88
2019-11-23 03:00:00 8.9 31 Oeste 59 Oeste 0.2 926.5 0.8 87
2019-11-23 02:00:00 9.4 36 Oeste 56 Oeste 0 926.3 0.5 84
2019-11-23 01:00:00 9.4 33 Oeste 61 Oeste 0 925.9 0.3 87
2019-11-23 00:00:00 9.1 26 Oeste 45 Oeste 0 925.7 0.7 85
2019-11-22 23:00:00 9.7 28 Oeste 48 Oeste 0 925.8 1 86
2019-11-22 22:00:00 10.1 31 Oeste 59 Oeste 0 925.6 1.5 86
2019-11-22 21:00:00 10.4 27 Oeste 45 Oeste 0 925 1.9 86
2019-11-22 20:00:00 10.7 21 Oeste 33 Oeste 0 924.8 2.3 84
2019-11-22 19:00:00 10.7 24 Oeste 46 Oeste 0 924.1 3.4 81
2019-11-22 18:00:00 12.1 24 Oeste 49 Oeste 0 923.1 1.6 87
2019-11-22 17:00:00 13 33 Oeste 81 Oeste 1.6 922.5 -0.1 84
2019-11-22 16:00:00 13.4 29 Sudoeste 52 Oeste 8.2 920.7 -3.1 94
2019-11-22 15:00:00 13 27 Sudoeste 46 Sudoeste 3 921.5 -4 94
2019-11-22 14:00:00 13 32 Sudoeste 51 Sudoeste 1.4 922.6 -3.8 94
2019-11-22 13:00:00 12.4 30 Sudoeste 48 Sudoeste 2 923.8 -2.9 95
2019-11-22 12:00:00 12 31 Sudoeste 47 Sudoeste 5 925.5 -2.1 94
2019-11-22 11:00:00 11.7 32 Sudoeste 51 Sur 0.4 926.4 -1.6 94
2019-11-22 10:00:00 11.1 31 Sur 48 Sur 0 926.7 -2.1 94
2019-11-22 09:00:00 10.6 26 Sur 42 Sudoeste 0 927.6 -2 94
2019-11-22 08:00:00 10.1 29 Sur 44 Sur 0 928 -2.1 93
2019-11-22 07:00:00 9.9 22 Sur 37 Sur 0.2 928.8 -2.5 93
2019-11-22 06:00:00 9.7 22 Sur 38 Sudoeste 0 929.6 -1.7 92
2019-11-22 05:00:00 9.6 25 Sur 32 Sur 0.2 930.1 -1.5 93
2019-11-22 04:00:00 9.6 21 Sudoeste 33 Sudoeste 0 931.3 -0.7 93
2019-11-22 03:00:00 9.7 19 Sudoeste 34 Sur 0 931.3 -1.2 93
2019-11-22 02:00:00 9.7 19 Sur 26 Sur 0 931.6 -1.2 93
2019-11-22 01:00:00 9.8 18 Sur 24 Sur 0 932 -1.1 94
2019-11-22 00:00:00 9.8 14 Sur 21 Sudoeste 0 932.5 -0.7 94
2019-11-21 23:00:00 9.8 15 Sudoeste 23 Sudoeste 0 932.8 -0.3 93
2019-11-21 22:00:00 10 18 Sudoeste 24 Sudoeste 0 933.1 0.3 94
2019-11-21 21:00:00 9.8 14 Sudoeste 19 Sudoeste 0 933.2 0.7 94
2019-11-21 20:00:00 10 13 Sudoeste 17 Sudoeste 0 933.1 0.8 92
2019-11-21 19:00:00 10.6 11 Sudoeste 18 Sudoeste 0 932.8 0.6 91
2019-11-21 18:00:00 11.1 10 Sudoeste 18 Oeste 0 932.5 -0.1 84
2019-11-21 17:00:00 12 11 Sudoeste 23 Sudoeste 0 932.3 -0.7 86
2019-11-21 16:00:00 11.7 11 Sudoeste 18 Sudoeste 0 932.2 -1.6 89
2019-11-21 15:00:00 11.4 15 Sudoeste 21 Sudoeste 0 932.6 -1.7 90
2019-11-21 14:00:00 11.1 8 Sudoeste 15 Sudoeste 0.6 933 -1.2 93
2019-11-21 13:00:00 10.1 11 Sudoeste 18 Sur 1.6 933.8 -0.1 93
2019-11-21 12:00:00 9.7 13 Sudoeste 21 Sudoeste 0 934.3 0.5 93
2019-11-21 11:00:00 9.4 10 Sudoeste 24 Sudoeste 0.6 934.2 0.8 93
2019-11-21 10:00:00 9.3 15 Sudoeste 29 Sudoeste 0.2 933.9 0.5 93
2019-11-21 09:00:00 8.9 19 Sudoeste 34 Sur 0.4 933.8 0.4 94
2019-11-21 08:00:00 8.9 24 Sudoeste 38 Sur 0 933.4 -0.1 93
2019-11-21 07:00:00 8.7 22 Sudoeste 32 Sudoeste 0 933.4 -0.7 94
2019-11-21 06:00:00 8.4 15 Sudoeste 24 Sudoeste 0 933.4 -0.8 94
2019-11-21 05:00:00 8.3 14 Sudoeste 22 Sudoeste 0 933.5 -0.7 94
2019-11-21 04:00:00 8.2 17 Sudoeste 25 Sudoeste 0 934.1 -0.5 94
2019-11-21 03:00:00 8 17 Sudoeste 25 Sudoeste 0 934.2 -0.5 94
2019-11-21 02:00:00 8 19 Sudoeste 28 Sudoeste 0 934.2 -0.5 94
2019-11-21 01:00:00 7.7 19 Sudoeste 27 Sudoeste 0 934.6 0.1 95
2019-11-21 00:00:00 7.8 18 Sudoeste 26 Sudoeste 0.2 934.7 0.5 94
2019-11-20 23:00:00 7.8 17 Sudoeste 27 Sudoeste 0.6 934.7 0.7 93
2019-11-20 22:00:00 7.6 20 Sudoeste 30 Sudoeste 0 934.5 0.9 92
2019-11-20 21:00:00 8.2 16 Sudoeste 25 Sudoeste 0 934.2 0.8 91
2019-11-20 20:00:00 7.6 17 Sudoeste 27 Sudoeste 0 934 0.3 93
2019-11-20 19:00:00 7.5 17 Sudoeste 24 Sudoeste 0 933.6 0 93
2019-11-20 18:00:00 7.9 13 Sudoeste 26 Sudoeste 0 933.4 0.4 95
2019-11-20 17:00:00 7.8 20 Sudoeste 28 Sudoeste 0 933.7 0.4 95
2019-11-20 16:00:00 7.7 15 Sudoeste 28 Sudoeste 0 933.6 -0.7 95
2019-11-20 15:00:00 7.5 23 Sudoeste 39 Sur 0 933 -2 94
2019-11-20 14:00:00 7.8 28 Sur 42 Sur 0 933.3 -2.4 91
2019-11-20 13:00:00 7.6 26 Sur 42 Sur 0.2 934.3 -1.7 90
2019-11-20 12:00:00 7.1 27 Sur 39 Sur 0.6 935 -0.5 85
2019-11-20 11:00:00 6 30 Sur 40 Sur 2.6 935.7 0.4 85
2019-11-20 10:00:00 6 31 Sur 41 Sur 1.4 936 0.6 84
2019-11-20 09:00:00 6.2 32 Sur 44 Sur 1 935.5 0.2 84
2019-11-20 08:00:00 6.8 28 Sur 39 Sur 1 935.3 -0.8 85
2019-11-20 07:00:00 7.4 29 Sur 38 Sur 0 935.4 -1.4 79
2019-11-20 06:00:00 7.3 25 Sur 39 Sur 0 935.3 -1.9 78
2019-11-20 05:00:00 6.9 21 Sur 34 Sur 0 936.1 -1.7 80
2019-11-20 04:00:00 7 23 Sur 32 Sur 0 936.8 -1.8 82
2019-11-20 03:00:00 7 22 Sur 28 Sur 0 937.2 -1.7 80
2019-11-20 02:00:00 7 18 Sudoeste 23 Sur 0 937.8 -1.5 80
2019-11-20 01:00:00 6.5 7 Sur 13 Sur 0 938.6 -1 79
2019-11-20 00:00:00 6.4 8 Sudoeste 13 Sur 0 938.9 -0.8 78
2019-11-19 23:00:00 5.5 7 Sur 9 Sur 0 939.3 -0.5 83
2019-11-19 22:00:00 6.5 7 Sur 12 Sudoeste 0 939.6 -0.2 82
2019-11-19 21:00:00 7.2 9 Sudoeste 15 Sur 0 939.7 0.2 78
2019-11-19 20:00:00 8 7 Sur 11 Sur 0 939.8 0.2 76
2019-11-19 19:00:00 8.2 6 Sur 7 Sur 0 939.8 -0.1 76
2019-11-19 18:00:00 10 5 Sudoeste 9 Sudoeste 0 939.5 -1 69
2019-11-19 17:00:00 11 7 Sudoeste 12 Oeste 0 939.6 -1.3 62
2019-11-19 16:00:00 11.4 4 Sudoeste 15 Oeste 0 939.9 -1.8 57
2019-11-19 15:00:00 11.8 8 Oeste 17 Oeste 0 940.5 -1.7 56
2019-11-19 14:00:00 11.5 8 Oeste 19 Sudoeste 0 940.9 -1.8 59
2019-11-19 13:00:00 9.7 14 Sudoeste 22 Sudoeste 0 941.7 -0.8 72
2019-11-19 12:00:00 9.3 15 Sudoeste 21 Sudoeste 0 942.2 -0.1 72
2019-11-19 11:00:00 9.3 5 Sudoeste 15 Sur 0 942.7 0.6 70
2019-11-19 10:00:00 7.8 5 Sudoeste 8 Sudoeste 0 942.5 0.7 74
2019-11-19 09:00:00 5.7 8 Sudoeste 10 Sudoeste 0 942.3 0.5 81
2019-11-19 08:00:00 5.5 8 Oeste 12 Oeste 0 942.1 0.5 81
2019-11-19 07:00:00 5.5 7 Sudoeste 10 Oeste 0 941.8 -0.2 79
2019-11-19 06:00:00 5.9 6 Sudoeste 8 Oeste 0 941.8 0.1 78
2019-11-19 05:00:00 6 6 Oeste 9 Sudoeste 0 941.6 -0.2 78
2019-11-19 04:00:00 6.3 6 Oeste 7 Oeste 0 942 -0.3 76
2019-11-19 03:00:00 5.8 3 Sudoeste 9 Oeste 0 941.7 -1 78
2019-11-19 02:00:00 5.5 5 Sudoeste 8 Sudoeste 0 941.8 -1.1 79
2019-11-19 01:00:00 6.3 8 Sudoeste 12 Sudoeste 0 942.3 -0.4 78
2019-11-19 00:00:00 6.7 6 Oeste 9 Sudoeste 0 942.7 0.3 77
2019-11-18 23:00:00 6.9 6 Sudoeste 9 Sudoeste 0 942.9 0.9 76
2019-11-18 22:00:00 7 7 Oeste 9 Sudoeste 0 942.7 1.3 78
2019-11-18 21:00:00 6.5 4 Sudoeste 5 Sudoeste 0 942.4 1.3 81
2019-11-18 20:00:00 6.9 4 Sur 5 Sur 0 942 1.3 80
2019-11-18 19:00:00 7.8 3 Noroeste 11 Noroeste 0 941.4 0.9 78
2019-11-18 18:00:00 9.3 8 Noroeste 16 Noroeste 0 941.1 0.7 72
2019-11-18 17:00:00 10.5 10 Norte 16 Noroeste 0 940.7 0.4 66
2019-11-18 16:00:00 11.5 8 Noroeste 14 Noroeste 0 940.5 -0.2 60
2019-11-18 15:00:00 11.2 4 Norte 19 Noroeste 0 940.4 -0.4 62
2019-11-18 14:00:00 10.5 8 Norte 19 Norte 0 940.3 -0.2 67
2019-11-18 13:00:00 9.6 12 Noroeste 21 Noroeste 0 940.7 0.5 74
2019-11-18 12:00:00 8.2 14 Noroeste 23 Noroeste 0 940.8 1.8 80
2019-11-18 11:00:00 7.5 16 Noroeste 30 Norte 0 940.5 2.1 81
2019-11-18 10:00:00 6.1 14 Noroeste 25 Noroeste 0 940.2 2.5 85
2019-11-18 09:00:00 4.3 15 Noroeste 24 Noroeste 0 939 1.7 89
2019-11-18 08:00:00 4 14 Noroeste 31 Norte 0 938.4 1.7 88
2019-11-18 07:00:00 4.5 19 Noroeste 35 Noroeste 0 937.7 1.2 87
2019-11-18 06:00:00 4.5 14 Noroeste 34 Noroeste 0 937.3 0.7 88
2019-11-18 05:00:00 4.8 21 Noroeste 33 Noroeste 0 936.7 0.1 91
2019-11-18 04:00:00 5.5 18 Noroeste 36 Noroeste 0 936.5 0 93
2019-11-18 03:00:00 6.6 23 Noroeste 37 Noroeste 0 936.6 0 93
2019-11-18 02:00:00 8.3 26 Noroeste 43 Noroeste 0 936.6 -0.5 92
2019-11-18 01:00:00 9.7 24 Noroeste 39 Oeste 2.4 936.5 -1.1 94
2019-11-18 00:00:00 10.4 26 Oeste 49 Oeste 0.2 936.6 -1.3 94
2019-11-17 23:00:00 10.7 24 Oeste 42 Oeste 2.4 937.1 -1.4 95
2019-11-17 22:00:00 10.7 27 Oeste 41 Oeste 1 937.6 -1.1 95
2019-11-17 21:00:00 10.7 21 Oeste 36 Oeste 1.4 937.9 -1 94
2019-11-17 20:00:00 11 21 Oeste 41 Oeste 1.2 938.5 -0.5 93
2019-11-17 19:00:00 11.1 27 Oeste 45 Oeste 1.4 938.7 -0.8 94
2019-11-17 18:00:00 11.1 27 Oeste 49 Oeste 0.4 938.9 -1.3 94
2019-11-17 17:00:00 11.2 26 Oeste 38 Sudoeste 0.4 939 -1.5 95
2019-11-17 16:00:00 10.3 16 Sudoeste 27 Sudoeste 0.4 939.5 -1.7 95
2019-11-17 15:00:00 10.1 17 Sudoeste 28 Sudoeste 0.4 940.2 -1.6 94
2019-11-17 14:00:00 9.4 22 Sudoeste 33 Sudoeste 1 940.5 -1.7 93
2019-11-17 13:00:00 9 22 Sudoeste 35 Sudoeste 0.4 941.2 -0.5 94
2019-11-17 12:00:00 8.3 26 Sudoeste 42 Sudoeste 0 941.8 0.6 94
2019-11-17 11:00:00 7.3 27 Sudoeste 40 Sudoeste 0 942.2 1.2 94
2019-11-17 10:00:00 6.6 29 Sudoeste 44 Sudoeste 0.2 941.7 0.5 93
2019-11-17 09:00:00 6.4 31 Sudoeste 44 Sudoeste 0 941.2 -0.3 92
2019-11-17 08:00:00 6 27 Sudoeste 45 Sudoeste 0.2 941 -0.6 91
2019-11-17 07:00:00 4.8 19 Sudoeste 29 Sudoeste 0.6 941.2 -0.8 90
2019-11-17 06:00:00 4.9 14 Sudoeste 23 Sudoeste 0 941.5 -0.5 81
2019-11-17 05:00:00 4.1 15 Sudoeste 24 Oeste 0 941.6 -1 80
2019-11-17 04:00:00 4.3 15 Oeste 21 Oeste 0 942 -0.7 78
2019-11-17 03:00:00 3.9 15 Oeste 20 Oeste 0 942 -0.8 79
2019-11-17 02:00:00 3.9 17 Oeste 20 Oeste 0 942.6 -0.2 77
2019-11-17 01:00:00 4.2 14 Oeste 18 Oeste 0 942.7 -0.2 76
2019-11-17 00:00:00 4.2 14 Oeste 18 Oeste 0 942.8 -0.1 74
2019-11-16 23:00:00 4.6 11 Oeste 19 Oeste 0 942.8 0.3 69
2019-11-16 22:00:00 5.3 12 Sudoeste 17 Oeste 0 942.9 0.7 66
2019-11-16 21:00:00 5.4 12 Oeste 18 Oeste 0 942.9 1.1 64
2019-11-16 20:00:00 6.2 11 Oeste 14 Oeste 0 942.5 1 59
2019-11-16 19:00:00 6.8 6 Oeste 15 Noroeste 0 942.2 1.1 57
2019-11-16 18:00:00 8.6 11 Noroeste 29 Noroeste 0 941.8 0.9 50
2019-11-16 17:00:00 10.2 19 Noroeste 31 Noroeste 0 941.5 0.7 41
2019-11-16 16:00:00 10.6 18 Noroeste 29 Noroeste 0 941.1 0.3 45
2019-11-16 15:00:00 10.5 19 Noroeste 26 Noroeste 0 940.9 -0.3 46
2019-11-16 14:00:00 10.1 11 Noroeste 19 Norte 0 940.8 -0.1 50
2019-11-16 13:00:00 8.9 8 Noroeste 14 Noroeste 0 940.8 0.5 57
2019-11-16 12:00:00 7 7 Noroeste 18 Norte 0 941.2 2.1 65
2019-11-16 11:00:00 5 14 Norte 22 Noroeste 0 940.9 2.7 74
2019-11-16 10:00:00 3.6 12 Noroeste 19 Noroeste 0 940.3 3.1 81
2019-11-16 09:00:00 1.5 5 Noroeste 16 Noroeste 0 939.1 2.6 86
2019-11-16 08:00:00 1.1 13 Noroeste 21 Noroeste 0 938.2 2.1 87
2019-11-16 07:00:00 0.9 11 Noroeste 15 Noroeste 0 937.2 1.2 89
2019-11-16 06:00:00 0.6 4 Noroeste 10 Noroeste 0 936.5 1.2 88
2019-11-16 05:00:00 0.8 5 Noroeste 14 Noroeste 0 936.1 1.1 87
2019-11-16 04:00:00 1.3 7 Noroeste 21 Noroeste 0 936 1 84
2019-11-16 03:00:00 2 12 Noroeste 18 Noroeste 0 935.3 0.6 82
2019-11-16 02:00:00 2 9 Noroeste 16 Norte 0 935 0.5 81
2019-11-16 01:00:00 2.5 10 Noroeste 22 Noroeste 0 935 1 78
2019-11-16 00:00:00 2.9 11 Noroeste 23 Noroeste 0 934.7 0.9 76
2019-11-15 23:00:00 3.7 15 Noroeste 23 Noroeste 0 934.5 1.1 72
2019-11-15 22:00:00 4.2 18 Noroeste 27 Noroeste 0 934 0.9 70
2019-11-15 21:00:00 5 15 Noroeste 25 Noroeste 0 933.8 1.2 67
2019-11-15 20:00:00 5.9 18 Oeste 27 Oeste 0 933.4 1.1 63
2019-11-15 19:00:00 6.4 15 Oeste 27 Noroeste 0 933.1 1.1 62
2019-11-15 18:00:00 7.8 23 Noroeste 35 Noroeste 0 932.6 0.4 55
2019-11-15 17:00:00 8.9 23 Noroeste 33 Noroeste 0 932.3 -0.1 51
2019-11-15 16:00:00 8.6 25 Noroeste 42 Noroeste 0 932 -0.9 52
2019-11-15 15:00:00 7.7 24 Noroeste 38 Noroeste 0 932.2 -1.2 61
2019-11-15 14:00:00 7.5 19 Noroeste 34 Noroeste 0 932.4 -0.9 61
2019-11-15 13:00:00 7 24 Noroeste 40 Noroeste 0 932.9 -0.3 62
2019-11-15 12:00:00 6.2 25 Noroeste 40 Noroeste 0 933.4 0.5 67
2019-11-15 11:00:00 6.1 28 Noroeste 42 Noroeste 0 933.3 0.7 70
2019-11-15 10:00:00 4.6 23 Oeste 32 Oeste 0 933.2 0.7 82
2019-11-15 09:00:00 3 19 Oeste 28 Oeste 0 932.9 0.4 87
2019-11-15 08:00:00 2 17 Oeste 30 Oeste 0 932.6 0.2 92
2019-11-15 07:00:00 2.3 14 Oeste 31 Oeste 0 932.5 0 92
2019-11-15 06:00:00 2.5 20 Oeste 30 Oeste 0 932.5 0.1 92
2019-11-15 05:00:00 2.8 21 Oeste 33 Oeste 0 932.4 -0.2 89
2019-11-15 04:00:00 3.3 24 Oeste 42 Oeste 0 932.5 -0.4 86
2019-11-15 03:00:00 3.7 26 Oeste 39 Oeste 0 932.4 -1 84
2019-11-15 02:00:00 4.2 29 Oeste 42 Oeste 0 932.6 -0.8 81
2019-11-15 01:00:00 4.6 29 Oeste 41 Noroeste 0 932.9 -0.4 80
2019-11-15 00:00:00 5.4 29 Noroeste 42 Noroeste 0 933.4 0.3 79
2019-11-14 23:00:00 5.8 28 Oeste 49 Oeste 0 933.4 0.2 83
2019-11-14 22:00:00 6.3 30 Oeste 44 Oeste 0 933.3 0.1 84
2019-11-14 21:00:00 6.4 28 Oeste 43 Oeste 0 933.1 0.3 83
2019-11-14 20:00:00 6.7 29 Oeste 52 Noroeste 0 933.2 0.5 79
2019-11-14 19:00:00 8.3 32 Noroeste 61 Noroeste 0 933.2 0.9 57
2019-11-14 18:00:00 8.5 31 Noroeste 57 Noroeste 0 932.8 0.1 67
2019-11-14 17:00:00 9 30 Noroeste 58 Noroeste 0 932.7 -0.5 66
2019-11-14 16:00:00 8.7 42 Noroeste 68 Noroeste 0 932.3 -1.8 63
2019-11-14 15:00:00 9.7 36 Noroeste 61 Noroeste 0 932.7 -1.8 63
2019-11-14 14:00:00 9.3 33 Noroeste 56 Noroeste 0 933.2 -1.3 74
2019-11-14 13:00:00 8.5 32 Noroeste 51 Noroeste 0 934.1 -0.2 78
2019-11-14 12:00:00 7.8 31 Noroeste 53 Noroeste 0.6 934.5 0.3 89
2019-11-14 11:00:00 7.9 35 Noroeste 53 Noroeste 0.6 934.5 -0.1 90
2019-11-14 10:00:00 8.9 29 Oeste 57 Oeste 0 934.3 -0.8 91
2019-11-14 09:00:00 8.8 26 Oeste 41 Oeste 0.2 934.2 -1.7 93
2019-11-14 08:00:00 8.3 24 Oeste 42 Oeste 0.2 934.6 -1.4 93
2019-11-14 07:00:00 8.4 24 Oeste 35 Oeste 0 935.1 -2.1 91
2019-11-14 06:00:00 8.2 22 Oeste 40 Oeste 0 935.9 -2.1 93
2019-11-14 05:00:00 7.7 20 Oeste 33 Oeste 0 936 -2.9 91
2019-11-14 04:00:00 7.3 18 Oeste 29 Oeste 0 937.2 -2.1 90
2019-11-14 03:00:00 7.7 19 Oeste 37 Oeste 0 938 -1.5 89
2019-11-14 02:00:00 7.8 26 Oeste 35 Oeste 0 938.9 -0.8 89
2019-11-14 01:00:00 8.3 25 Oeste 35 Oeste 0 939.3 -0.6 90
2019-11-14 00:00:00 9.3 21 Oeste 34 Oeste 0 939.5 -0.7 91
2019-11-13 23:00:00 10.2 18 Oeste 30 Oeste 0 939.7 -0.3 90
2019-11-13 22:00:00 10.6 18 Sudoeste 28 Oeste 0 939.9 -0.2 86
2019-11-13 21:00:00 11.5 17 Oeste 28 Noroeste 0 940.2 0 81
2019-11-13 20:00:00 12.2 18 Oeste 27 Oeste 0 940 0.1 77
2019-11-13 19:00:00 13 15 Oeste 35 Noroeste 0 940.1 0.7 73
2019-11-13 18:00:00 14.7 22 Oeste 39 Oeste 0 940.2 1 68
2019-11-13 17:00:00 16.3 23 Oeste 34 Oeste 0 939.9 0.4 63
2019-11-13 16:00:00 16.9 21 Oeste 30 Oeste 0 939.4 -0.7 61
2019-11-13 15:00:00 16.9 16 Oeste 30 Noroeste 0 939.2 -1 63
2019-11-13 14:00:00 16.1 21 Noroeste 40 Noroeste 0 939.5 -0.1 66
2019-11-13 13:00:00 15.1 27 Noroeste 41 Noroeste 0 940.1 1.1 72
2019-11-13 12:00:00 14.1 27 Noroeste 39 Oeste 0 940.2 1.7 78
2019-11-13 11:00:00 12.9 26 Oeste 44 Oeste 0 939.6 1.7 92
2019-11-13 10:00:00 12 24 Oeste 39 Oeste 0.4 939 1.5 95
2019-11-13 09:00:00 11.2 22 Oeste 41 Oeste 0 938.5 0.9 95
2019-11-13 08:00:00 10.8 29 Oeste 45 Oeste 0 937.9 0.3 95
2019-11-13 07:00:00 10.8 28 Oeste 44 Oeste 0.4 937.5 -1.1 93
2019-11-13 06:00:00 11 31 Oeste 46 Oeste 0 937.6 -1.2 91
2019-11-13 05:00:00 11 28 Oeste 40 Oeste 0 937.6 -1.4 89
2019-11-13 04:00:00 10.8 22 Oeste 39 Oeste 0 938.6 -0.9 89
2019-11-13 03:00:00 10.5 27 Oeste 38 Oeste 0 938.8 -1.5 91
2019-11-13 02:00:00 10.5 25 Oeste 39 Oeste 0 939 -1.4 90
2019-11-13 01:00:00 10.4 19 Oeste 34 Oeste 0 939.5 -0.8 90
2019-11-13 00:00:00 10.2 24 Oeste 41 Oeste 0 940.3 -0.3 90
2019-11-12 23:00:00 10.4 24 Oeste 35 Oeste 0 940.4 -0.3 85
2019-11-12 22:00:00 10.3 23 Oeste 34 Oeste 0 940.3 -0.6 82
2019-11-12 21:00:00 10.6 17 Oeste 28 Oeste 0 940.6 -0.1 75
2019-11-12 20:00:00 9.9 15 Oeste 23 Oeste 0 940.7 0.2 73
2019-11-12 19:00:00 10.6 15 Noroeste 31 Noroeste 0 940.9 0.1 65
2019-11-12 18:00:00 12 21 Noroeste 35 Noroeste 0 940.7 -0.1 60
2019-11-12 17:00:00 13.3 24 Noroeste 39 Noroeste 0 940.5 -1.1 53
2019-11-12 16:00:00 13.7 26 Noroeste 39 Noroeste 0 940.8 -1.2 49
2019-11-12 15:00:00 13.6 25 Noroeste 40 Noroeste 0 940.8 -1.5 49
2019-11-12 14:00:00 12.5 26 Noroeste 39 Noroeste 0 941.6 -0.7 52
2019-11-12 13:00:00 11.8 22 Noroeste 36 Noroeste 0 942 -0.5 58
2019-11-12 12:00:00 11 19 Noroeste 35 Noroeste 0 942.3 0.2 66
2019-11-12 11:00:00 9.7 18 Noroeste 28 Noroeste 0 942.3 1.1 76
2019-11-12 10:00:00 8.1 19 Noroeste 30 Noroeste 0 942.5 1.5 80
2019-11-12 09:00:00 6.9 18 Noroeste 27 Noroeste 0 942.1 1.1 86
2019-11-12 08:00:00 6 11 Noroeste 18 Noroeste 0 941.2 -0.3 91
2019-11-12 07:00:00 6.5 7 Oeste 15 Noroeste 0 941 -0.5 90
2019-11-12 06:00:00 6.9 9 Noroeste 15 Noroeste 0 941 -1.1 92
2019-11-12 05:00:00 7.1 8 Noroeste 14 Oeste 0.2 941.5 -0.4 92
2019-11-12 04:00:00 7.2 5 Sudoeste 15 Noroeste 0 941.5 -0.5 92
2019-11-12 03:00:00 7.9 8 Noroeste 19 Noroeste 0 942.1 -0.3 91
2019-11-12 02:00:00 8 8 Oeste 16 Noroeste 0 941.9 -0.3 91
2019-11-12 01:00:00 8.4 7 Oeste 14 Noroeste 0 942 -0.4 90
2019-11-12 00:00:00 9 9 Noroeste 16 Noroeste 0 942.4 0.4 89
2019-11-11 23:00:00 9.5 7 Oeste 21 Noroeste 0 942.2 0.4 89
2019-11-11 22:00:00 10.5 18 Noroeste 30 Noroeste 0 942.4 1.3 89
2019-11-11 21:00:00 11.6 17 Noroeste 26 Oeste 0 942 0.6 87
2019-11-11 20:00:00 12.8 14 Oeste 23 Noroeste 0 941.8 0.5 89
2019-11-11 19:00:00 13.3 10 Oeste 20 Noroeste 0 941.1 0.1 89
2019-11-11 18:00:00 13.7 17 Noroeste 28 Noroeste 0 941.4 0.1 88
2019-11-11 17:00:00 14.3 21 Noroeste 33 Noroeste 0 941.3 -0.6 84
2019-11-11 16:00:00 14.4 21 Noroeste 35 Noroeste 0 941 -2 86
2019-11-11 15:00:00 13.2 20 Noroeste 35 Noroeste 0 941.3 -2 90
2019-11-11 14:00:00 12.5 16 Noroeste 29 Noroeste 0 941.9 -1.3 93
2019-11-11 13:00:00 12.1 18 Noroeste 29 Noroeste 0 943 -0.7 95
2019-11-11 12:00:00 11.6 18 Noroeste 29 Noroeste 0 943.3 -0.3 96
2019-11-11 11:00:00 10.4 14 Oeste 23 Oeste 0 943.2 -0.2 96
2019-11-11 10:00:00 9.3 9 Oeste 15 Oeste 0 943.7 0.7 95
2019-11-11 09:00:00 8.6 8 Oeste 13 Oeste 0 943.6 -0.1 95
2019-11-11 08:00:00 8.4 9 Oeste 15 Noroeste 0 943.4 -0.3 95
2019-11-11 07:00:00 8.3 8 Oeste 18 Noroeste 0 943 -1 95
2019-11-11 06:00:00 8.2 9 Noroeste 14 Noroeste 0 943.7 -0.4 95
2019-11-11 05:00:00 8.1 10 Noroeste 15 Noroeste 0 943.7 -1.2 95
2019-11-11 04:00:00 8 9 Noroeste 13 Noroeste 0.2 944 -0.9 94
2019-11-11 03:00:00 7.9 8 Noroeste 19 Norte 0.4 944.1 -1 94
2019-11-11 02:00:00 7.8 14 Noroeste 26 Noroeste 0.2 944.9 -0.1 93
2019-11-11 01:00:00 7.9 17 Noroeste 34 Noroeste 0 944.9 0.3 90
2019-11-11 00:00:00 8.2 19 Noroeste 35 Noroeste 0 945.1 0.7 87
2019-11-10 23:00:00 8.4 16 Noroeste 35 Noroeste 0 945 0.6 87
2019-11-10 22:00:00 8.4 21 Noroeste 37 Noroeste 0 944.6 0.1 85
2019-11-10 21:00:00 8.6 26 Noroeste 41 Noroeste 0 944.4 -0.2 81
2019-11-10 20:00:00 8.7 30 Noroeste 42 Noroeste 0 944.4 -0.3 83
2019-11-10 19:00:00 8.8 22 Noroeste 35 Noroeste 0 944.5 -0.3 81
2019-11-10 18:00:00 8.7 18 Noroeste 25 Noroeste 0 944.6 0.2 83
2019-11-10 17:00:00 8.7 16 Noroeste 33 Norte 0.2 944.7 0.2 80
2019-11-10 16:00:00 8.9 18 Norte 44 Noroeste 0.4 944.8 -0.2 78
2019-11-10 15:00:00 10 31 Noroeste 53 Noroeste 0 944.4 -1.1 66
2019-11-10 14:00:00 11.8 31 Noroeste 55 Norte 0 944.5 -0.6 49
2019-11-10 13:00:00 11.7 32 Noroeste 51 Noroeste 0 945 -0.2 47
2019-11-10 12:00:00 11.1 27 Noroeste 48 Noroeste 0 945.5 0.6 56
2019-11-10 11:00:00 10.2 30 Noroeste 45 Noroeste 0 945.1 0.7 61
2019-11-10 10:00:00 8.4 24 Noroeste 39 Noroeste 0 945.2 1.5 81
2019-11-10 09:00:00 6.9 23 Noroeste 37 Noroeste 0 944.9 1.1 85
2019-11-10 08:00:00 6.8 20 Noroeste 35 Noroeste 0 944.4 0.8 86
2019-11-10 07:00:00 6.9 17 Noroeste 36 Noroeste 0 943.7 -0.2 90
2019-11-10 06:00:00 7.3 24 Noroeste 40 Noroeste 0 943.8 -0.4 91
2019-11-10 05:00:00 7.4 21 Noroeste 35 Noroeste 0 943.6 -0.5 87
2019-11-10 04:00:00 7.3 13 Oeste 28 Noroeste 0 943.9 -0.5 85
2019-11-10 03:00:00 7.8 21 Noroeste 31 Noroeste 0 944.2 -0.6 86
2019-11-10 02:00:00 8.4 22 Noroeste 32 Noroeste 0 944.1 -0.8 90
2019-11-10 01:00:00 9.8 22 Noroeste 36 Noroeste 0 944.4 -0.8 88
2019-11-10 00:00:00 10.6 20 Oeste 32 Oeste 0 944.8 0 89
2019-11-09 23:00:00 11.1 23 Oeste 36 Oeste 0 944.9 -0.2 89
2019-11-09 22:00:00 11 21 Oeste 39 Sudoeste 0 945.2 -0.3 91
2019-11-09 21:00:00 11 23 Oeste 37 Oeste 0 944.8 -0.7 87
2019-11-09 20:00:00 11 22 Sudoeste 32 Oeste 0 945.1 -0.9 82
2019-11-09 19:00:00 11.8 19 Oeste 29 Oeste 0 945.5 -0.5 75
2019-11-09 18:00:00 11.9 16 Oeste 31 Oeste 0 945.5 -1 70
2019-11-09 17:00:00 12.8 18 Oeste 30 Oeste 0 946 -1.1 64
2019-11-09 16:00:00 13.7 17 Oeste 30 Noroeste 0 946 -1.7 58
2019-11-09 15:00:00 13.6 21 Noroeste 37 Noroeste 0 946.5 -1.6 58
2019-11-09 14:00:00 13.6 18 Noroeste 35 Oeste 0 947.1 -1.3 54
2019-11-09 13:00:00 12.4 15 Noroeste 22 Noroeste 0 947.7 -0.2 50
2019-11-09 12:00:00 10.9 13 Noroeste 21 Noroeste 0 948.1 0.4 56
2019-11-09 11:00:00 10 13 Noroeste 26 Noroeste 0 948.4 0.9 63
2019-11-09 10:00:00 8.6 13 Noroeste 21 Noroeste 0 947.9 1 67
2019-11-09 09:00:00 5.2 9 Oeste 12 Oeste 0 947.7 1.1 82
2019-11-09 08:00:00 3.7 6 Noroeste 10 Noroeste 0 947.5 1 86
2019-11-09 07:00:00 4.1 3 Sur 14 Noroeste 0 946.9 0.2 83
2019-11-09 06:00:00 4.8 10 Noroeste 21 Noroeste 0 946.6 -0.4 81
2019-11-09 05:00:00 4.9 15 Noroeste 22 Noroeste 0 946.5 -0.8 82
2019-11-09 04:00:00 4.7 10 Noroeste 21 Noroeste 0 946.7 -0.8 81
2019-11-09 03:00:00 4.9 13 Noroeste 19 Noroeste 0 947 -0.6 82
2019-11-09 02:00:00 5.5 11 Noroeste 16 Noroeste 0 947.3 0 78
2019-11-09 01:00:00 5.5 6 Oeste 17 Noroeste 0 947.5 0.5 76
2019-11-09 00:00:00 6.6 14 Noroeste 25 Noroeste 0 947.6 0.9 73
2019-11-08 23:00:00 6.9 17 Noroeste 24 Noroeste 0 947.3 1 72
2019-11-08 22:00:00 7 14 Noroeste 27 Noroeste 0 947 1.5 70
2019-11-08 21:00:00 7.4 18 Oeste 27 Oeste 0 946.7 1.8 66
2019-11-08 20:00:00 7.9 12 Oeste 21 Noroeste 0 946.3 2 62
2019-11-08 19:00:00 8.9 14 Noroeste 29 Noroeste 0 945.5 1.6 55
2019-11-08 18:00:00 10.7 21 Noroeste 33 Noroeste 0 944.9 1.3 48
2019-11-08 17:00:00 11.6 21 Noroeste 37 Noroeste 0 944.3 0.5 45
2019-11-08 16:00:00 12.1 23 Noroeste 39 Noroeste 0 943.9 -0.2 44
2019-11-08 15:00:00 12.1 25 Noroeste 38 Noroeste 0 943.6 -0.8 45
2019-11-08 14:00:00 11.7 22 Noroeste 37 Noroeste 0 943.8 -0.2 47
2019-11-08 13:00:00 10.9 24 Noroeste 38 Noroeste 0 944.1 0.2 53
2019-11-08 12:00:00 10 24 Noroeste 38 Norte 0 944.4 1.5 56
2019-11-08 11:00:00 8.8 25 Noroeste 37 Noroeste 0 944 2 66
2019-11-08 10:00:00 7.6 22 Noroeste 34 Noroeste 0 943.9 2.3 77
2019-11-08 09:00:00 6 22 Noroeste 31 Noroeste 0 942.9 1.9 86
2019-11-08 08:00:00 5.2 18 Oeste 27 Oeste 0 942 1.2 88
2019-11-08 07:00:00 5.3 15 Oeste 32 Noroeste 0 941.6 0.7 85
2019-11-08 06:00:00 6 18 Oeste 26 Oeste 0 941 0.2 86
2019-11-08 05:00:00 6.8 18 Oeste 30 Noroeste 0 940.8 0.1 85
2019-11-08 04:00:00 6.6 18 Oeste 29 Oeste 0 940.9 -0.1 88
2019-11-08 03:00:00 6.4 19 Oeste 31 Oeste 0 940.8 -0.7 89
2019-11-08 02:00:00 7 19 Oeste 27 Oeste 0 940.7 -0.9 88
2019-11-08 01:00:00 6.7 18 Oeste 26 Oeste 0 941 -0.3 86
2019-11-08 00:00:00 7.1 18 Oeste 27 Noroeste 0 941.5 0.5 82
2019-11-07 23:00:00 7.7 21 Noroeste 31 Noroeste 0 941.6 0.9 78
2019-11-07 22:00:00 8.1 25 Noroeste 38 Oeste 0 941.3 0.9 74
2019-11-07 21:00:00 8.5 19 Oeste 32 Oeste 0 941 0.9 70
2019-11-07 20:00:00 9.4 26 Noroeste 38 Noroeste 0 940.7 1 68
2019-11-07 19:00:00 9.7 18 Oeste 34 Noroeste 0 940.4 0.9 63
2019-11-07 18:00:00 11.2 27 Noroeste 45 Noroeste 0 940.1 0.4 55
2019-11-07 17:00:00 12.7 27 Noroeste 46 Noroeste 0 939.7 -0.4 56
2019-11-07 16:00:00 13.5 28 Noroeste 45 Noroeste 0 939.5 -1 54
2019-11-07 15:00:00 13.3 27 Noroeste 43 Noroeste 0 939.7 -1.1 55
2019-11-07 14:00:00 12.8 27 Noroeste 41 Noroeste 0 940.1 -0.3 63
2019-11-07 13:00:00 12.7 29 Noroeste 45 Noroeste 0 940.5 0.8 64
2019-11-07 12:00:00 12 23 Noroeste 42 Noroeste 0 940.8 1.7 68
2019-11-07 11:00:00 11.1 29 Noroeste 43 Noroeste 0 940.4 1.8 78
2019-11-07 10:00:00 11.3 23 Noroeste 39 Noroeste 0 939.7 1.2 93
2019-11-07 09:00:00 12.1 18 Noroeste 26 Noroeste 0.2 939.1 0.2 95
2019-11-07 08:00:00 11.5 15 Oeste 21 Sudoeste 0.8 938.6 -0.4 95
2019-11-07 07:00:00 11.2 13 Sudoeste 24 Sudoeste 0.8 938.5 -0.7 95
2019-11-07 06:00:00 11.2 17 Sudoeste 30 Sudoeste 0 938.9 -0.9 95
2019-11-07 05:00:00 10.8 17 Sudoeste 28 Sudoeste 0 939 -1.7 94
2019-11-07 04:00:00 10.5 19 Sudoeste 30 Sudoeste 0.4 939.2 -1.8 92
2019-11-07 03:00:00 10.5 19 Sudoeste 30 Oeste 0 939.8 -1.7 90
2019-11-07 02:00:00 10.7 17 Oeste 31 Oeste 0 940.7 -1.3 90
2019-11-07 01:00:00 10.6 19 Oeste 31 Oeste 0 941 -1.1 90
2019-11-07 00:00:00 10.6 18 Oeste 29 Oeste 0 941.5 -0.6 88
2019-11-06 23:00:00 11.1 17 Oeste 27 Oeste 0 942 -0.3 86
2019-11-06 22:00:00 11.4 14 Oeste 23 Oeste 0 942.1 0.5 82
2019-11-06 21:00:00 11.4 12 Oeste 18 Oeste 0 942.1 0.4 80
2019-11-06 20:00:00 10.9 9 Oeste 16 Noroeste 0 942.3 0.8 78
2019-11-06 19:00:00 11.8 14 Noroeste 30 Noroeste 0 941.6 0 73
2019-11-06 18:00:00 13.1 19 Noroeste 33 Noroeste 0 941.7 -0.1 66
2019-11-06 17:00:00 14.1 23 Noroeste 37 Noroeste 0 941.5 -0.8 60
2019-11-06 16:00:00 15.5 22 Noroeste 39 Noroeste 0 941.6 -1.2 56
2019-11-06 15:00:00 14.7 22 Noroeste 40 Noroeste 0 941.8 -1.6 53
2019-11-06 14:00:00 14.9 23 Noroeste 40 Noroeste 0 942.3 -1.2 50
2019-11-06 13:00:00 13.8 26 Noroeste 40 Noroeste 0 942.8 -0.5 53
2019-11-06 12:00:00 11.1 21 Noroeste 33 Noroeste 0 943.4 0.4 72
2019-11-06 11:00:00 9.5 22 Noroeste 32 Noroeste 0 943.5 0.6 84
2019-11-06 10:00:00 8.7 15 Noroeste 24 Noroeste 0 943.3 0.7 95
2019-11-06 09:00:00 6.6 12 Noroeste 19 Noroeste 0 943 0.4 95
2019-11-06 08:00:00 6.2 13 Noroeste 22 Noroeste 0.2 942.9 0.2 94
2019-11-06 07:00:00 6.4 6 Noroeste 16 Noroeste 0 942.6 -0.4 94
2019-11-06 06:00:00 6.3 5 Oeste 20 Noroeste 0 942.6 -0.7 93
2019-11-06 05:00:00 6.7 10 Oeste 20 Oeste 0 942.7 -0.7 93
2019-11-06 04:00:00 6.9 12 Oeste 15 Oeste 0 943 -0.5 92
2019-11-06 03:00:00 7.4 5 Sudoeste 16 Oeste 0 943.3 0 90
2019-11-06 02:00:00 8.1 7 Oeste 21 Noroeste 0 943.4 0 91
2019-11-06 01:00:00 8.1 15 Noroeste 20 Noroeste 0 943.5 0.5 91
2019-11-06 00:00:00 8.7 11 Noroeste 22 Noroeste 0 943.3 0.8 89